DRZA/AJY METAR and TAF weather

Enter ICAO airport designator
Station Type Date Time Source
DRZA METAR 2022/05/24 22:00 UTC NOAA

DRZA 242200Z 10006KT CAVOK 31/00 Q1013


Station Type Date Time Source
DRZA Decoded METAR 2022/05/24 22:00 UTC NOAA

Agadez, Niger (DRZA) 16-58N 007-59E 502M
May 24, 2022 - 06:00 PM EDT / 2022.05.24 2200 UTC
Wind: from the E (100 degrees) at 7 MPH (6 KT):0
Visibility: greater than 7 mile(s):0
Temperature: 87 F (31 C)
Dew Point: 32 F (0 C)
Relative Humidity: 13%
Pressure (altimeter): 29.91 in. Hg (1013 hPa)
ob: DRZA 242200Z 10006KT CAVOK 31/00 Q1013
cycle: 22

Station Type Date Time Source
DRZA TAF 2022/05/24 18:57 UTC NOAA

TAF DRZA 241700Z 2418/2518 10010KT 8000 NSC

Example: see airport list